OAJL

Details ICAO OAJL (JAA)
Name JALALABAD
Region Afghanistan
Timezone Asia/Kabul (UTC+4.5)
Plans Departing 2
Arriving 7
Stats Elevation 1,814 ft / 553 m (AMSL)
Location 34.399840° 70.498625°
Runways 1
Magnetic Variation 3.023° E
Sunrise 2017-12-11 02:15:38 UTC / 2017-12-11 06:45:38 Local
Sunset 2017-12-11 12:09:38 UTC / 2017-12-11 16:39:38 Local
Advertisement - Login to hide

Runways

ID Width Length Bearing (true) Bearing (mag) Surface Threshold Offset Overrun Length
13 148 ft / 45 m 7,263 ft / 2,214 m 131.57° 128.55° Asphalt 0 ft / 0 m 0 ft / 0 m
31 148 ft / 45 m 7,263 ft / 2,214 m 311.58° 308.56° Asphalt 0 ft / 0 m 0 ft / 0 m

Map

Weather


0- 5 10 15 20 25 30 35+ Temperature / ° C

Clouds and Precipitation
Forecast for 2017-12-11 06:00 UTC. Updated an hour ago

Ground ~20,000 ft ~40,000 ft Winds

METAR

OAJL 110355Z 27001KT 4000 BR SCT050 BKN100 09/04 A3006 RMK A02A SLP183 T00940039

TAF

TAF AMD OAJL 110251Z 1103/1206 VRB06KT 4000 BR SCT150 QNH3004INS BECMG 1104/1105 VRB06KT 6000 HZ FEW150 QNH3001INS BECMG 1111/1112 VRB06KT 5000 FU HZ SKC QNH2993INS BECMG 1116/1117 VRB06KT 8000 HZ SKC QNH2996INS BECMG 1202/1203 VRB06KT 5000 BR SKC QNH2997INS TX19/1109Z TN04/1200Z

Frequencies

Tower 118.50 MHz TWR
Warning: Do not use this data for real-world aviation or navigation. No guarantee of current accuracy is given.